sensor_id;sensor_type;location;lat;lon;timestamp;P1;durP1;ratioP1;P2;durP2;ratioP2
7931;SDS011;4011;49.424;10.894;2024-03-06T00:00:39;3.50;;;2.40;;
7931;SDS011;4011;49.424;10.894;2024-03-06T00:06:00;3.97;;;2.28;;
7931;SDS011;4011;49.424;10.894;2024-03-06T00:11:23;4.07;;;2.40;;
7931;SDS011;4011;49.424;10.894;2024-03-06T00:16:44;3.50;;;2.20;;
7931;SDS011;4011;49.424;10.894;2024-03-06T00:22:06;3.95;;;2.42;;
7931;SDS011;4011;49.424;10.894;2024-03-06T00:27:29;3.25;;;2.40;;
7931;SDS011;4011;49.424;10.894;2024-03-06T00:32:50;3.78;;;2.40;;
7931;SDS011;4011;49.424;10.894;2024-03-06T00:38:12;4.18;;;2.58;;
7931;SDS011;4011;49.424;10.894;2024-03-06T00:43:34;3.47;;;2.40;;
7931;SDS011;4011;49.424;10.894;2024-03-06T00:48:56;3.70;;;2.50;;
7931;SDS011;4011;49.424;10.894;2024-03-06T00:54:17;3.60;;;2.30;;
7931;SDS011;4011;49.424;10.894;2024-03-06T00:59:40;3.78;;;2.50;;
7931;SDS011;4011;49.424;10.894;2024-03-06T01:05:01;3.80;;;2.40;;
7931;SDS011;4011;49.424;10.894;2024-03-06T01:10:23;3.55;;;2.35;;
7931;SDS011;4011;49.424;10.894;2024-03-06T01:15:46;3.70;;;2.40;;
7931;SDS011;4011;49.424;10.894;2024-03-06T01:21:07;3.45;;;2.45;;
7931;SDS011;4011;49.424;10.894;2024-03-06T01:26:29;3.45;;;2.28;;
7931;SDS011;4011;49.424;10.894;2024-03-06T01:31:51;3.45;;;2.20;;
7931;SDS011;4011;49.424;10.894;2024-03-06T01:37:13;3.15;;;2.17;;
7931;SDS011;4011;49.424;10.894;2024-03-06T01:42:34;3.83;;;2.53;;
7931;SDS011;4011;49.424;10.894;2024-03-06T01:47:57;4.25;;;2.70;;
7931;SDS011;4011;49.424;10.894;2024-03-06T01:53:18;3.70;;;2.60;;
7931;SDS011;4011;49.424;10.894;2024-03-06T01:58:40;3.58;;;2.42;;
7931;SDS011;4011;49.424;10.894;2024-03-06T02:04:03;3.40;;;2.30;;
7931;SDS011;4011;49.424;10.894;2024-03-06T02:09:27;4.20;;;2.50;;
7931;SDS011;4011;49.424;10.894;2024-03-06T02:14:48;3.50;;;2.30;;
7931;SDS011;4011;49.424;10.894;2024-03-06T02:20:11;3.40;;;2.20;;
7931;SDS011;4011;49.424;10.894;2024-03-06T02:25:35;3.22;;;2.13;;
7931;SDS011;4011;49.424;10.894;2024-03-06T02:30:57;4.10;;;2.47;;
7931;SDS011;4011;49.424;10.894;2024-03-06T02:36:19;3.75;;;2.40;;
7931;SDS011;4011;49.424;10.894;2024-03-06T02:41:42;3.03;;;2.20;;
7931;SDS011;4011;49.424;10.894;2024-03-06T02:47:03;3.55;;;2.30;;
7931;SDS011;4011;49.424;10.894;2024-03-06T02:52:25;3.70;;;2.30;;
7931;SDS011;4011;49.424;10.894;2024-03-06T02:57:47;3.97;;;2.60;;
7931;SDS011;4011;49.424;10.894;2024-03-06T03:03:09;4.10;;;2.60;;
7931;SDS011;4011;49.424;10.894;2024-03-06T03:08:32;3.70;;;2.50;;
7931;SDS011;4011;49.424;10.894;2024-03-06T03:13:58;4.60;;;2.40;;
7931;SDS011;4011;49.424;10.894;2024-03-06T03:19:19;3.83;;;2.50;;
7931;SDS011;4011;49.424;10.894;2024-03-06T03:24:41;3.60;;;2.35;;
7931;SDS011;4011;49.424;10.894;2024-03-06T03:30:04;3.50;;;2.40;;
7931;SDS011;4011;49.424;10.894;2024-03-06T03:35:25;3.15;;;2.30;;
7931;SDS011;4011;49.424;10.894;2024-03-06T03:40:47;3.72;;;2.35;;
7931;SDS011;4011;49.424;10.894;2024-03-06T03:46:10;3.33;;;2.50;;
7931;SDS011;4011;49.424;10.894;2024-03-06T03:51:31;3.85;;;2.30;;
7931;SDS011;4011;49.424;10.894;2024-03-06T03:56:52;4.13;;;2.33;;
7931;SDS011;4011;49.424;10.894;2024-03-06T04:02:15;3.60;;;2.30;;
7931;SDS011;4011;49.424;10.894;2024-03-06T04:07:36;3.60;;;2.50;;
7931;SDS011;4011;49.424;10.894;2024-03-06T04:12:58;3.90;;;2.50;;
7931;SDS011;4011;49.424;10.894;2024-03-06T04:18:21;3.70;;;2.45;;
7931;SDS011;4011;49.424;10.894;2024-03-06T04:23:42;3.90;;;2.25;;
7931;SDS011;4011;49.424;10.894;2024-03-06T04:29:04;3.05;;;2.10;;
7931;SDS011;4011;49.424;10.894;2024-03-06T04:34:26;3.88;;;2.53;;
7931;SDS011;4011;49.424;10.894;2024-03-06T04:39:48;3.75;;;2.42;;
7931;SDS011;4011;49.424;10.894;2024-03-06T04:45:10;3.60;;;2.70;;
7931;SDS011;4011;49.424;10.894;2024-03-06T04:50:33;3.25;;;2.30;;
7931;SDS011;4011;49.424;10.894;2024-03-06T04:55:55;3.58;;;2.47;;
7931;SDS011;4011;49.424;10.894;2024-03-06T05:01:16;3.95;;;2.53;;
7931;SDS011;4011;49.424;10.894;2024-03-06T05:06:39;3.30;;;2.33;;
7931;SDS011;4011;49.424;10.894;2024-03-06T05:12:00;3.65;;;2.60;;
7931;SDS011;4011;49.424;10.894;2024-03-06T05:17:21;3.70;;;2.35;;
7931;SDS011;4011;49.424;10.894;2024-03-06T05:22:44;3.47;;;2.47;;
7931;SDS011;4011;49.424;10.894;2024-03-06T05:28:05;3.83;;;2.60;;
7931;SDS011;4011;49.424;10.894;2024-03-06T05:33:27;3.55;;;2.40;;
7931;SDS011;4011;49.424;10.894;2024-03-06T05:38:51;3.85;;;2.67;;
7931;SDS011;4011;49.424;10.894;2024-03-06T05:44:14;3.33;;;2.22;;
7931;SDS011;4011;49.424;10.894;2024-03-06T05:49:35;4.43;;;2.63;;
7931;SDS011;4011;49.424;10.894;2024-03-06T05:54:58;3.42;;;2.20;;
7931;SDS011;4011;49.424;10.894;2024-03-06T06:00:19;4.70;;;2.65;;
7931;SDS011;4011;49.424;10.894;2024-03-06T06:05:42;8.20;;;3.10;;
7931;SDS011;4011;49.424;10.894;2024-03-06T06:11:04;11.18;;;4.13;;
7931;SDS011;4011;49.424;10.894;2024-03-06T06:16:26;18.38;;;4.57;;
7931;SDS011;4011;49.424;10.894;2024-03-06T06:21:47;9.18;;;4.05;;
7931;SDS011;4011;49.424;10.894;2024-03-06T06:27:10;10.02;;;5.13;;
7931;SDS011;4011;49.424;10.894;2024-03-06T06:32:31;9.48;;;5.50;;
7931;SDS011;4011;49.424;10.894;2024-03-06T06:37:53;10.88;;;6.63;;
7931;SDS011;4011;49.424;10.894;2024-03-06T06:43:16;12.38;;;7.13;;
7931;SDS011;4011;49.424;10.894;2024-03-06T06:48:37;8.90;;;5.82;;
7931;SDS011;4011;49.424;10.894;2024-03-06T06:53:59;9.35;;;6.38;;
7931;SDS011;4011;49.424;10.894;2024-03-06T06:59:21;10.68;;;6.55;;
7931;SDS011;4011;49.424;10.894;2024-03-06T07:04:43;11.70;;;7.15;;
7931;SDS011;4011;49.424;10.894;2024-03-06T07:10:05;11.85;;;6.68;;
7931;SDS011;4011;49.424;10.894;2024-03-06T07:15:28;10.30;;;6.45;;
7931;SDS011;4011;49.424;10.894;2024-03-06T07:20:49;9.63;;;6.63;;
7931;SDS011;4011;49.424;10.894;2024-03-06T07:26:10;10.57;;;7.10;;
7931;SDS011;4011;49.424;10.894;2024-03-06T07:31:33;13.50;;;9.13;;
7931;SDS011;4011;49.424;10.894;2024-03-06T07:36:54;13.52;;;8.65;;
7931;SDS011;4011;49.424;10.894;2024-03-06T07:42:16;12.50;;;8.00;;
7931;SDS011;4011;49.424;10.894;2024-03-06T07:47:39;11.98;;;7.78;;
7931;SDS011;4011;49.424;10.894;2024-03-06T07:53:01;14.40;;;9.00;;
7931;SDS011;4011;49.424;10.894;2024-03-06T07:58:23;14.82;;;9.02;;
7931;SDS011;4011;49.424;10.894;2024-03-06T08:03:46;14.88;;;8.57;;
7931;SDS011;4011;49.424;10.894;2024-03-06T08:09:07;11.63;;;6.97;;
7931;SDS011;4011;49.424;10.894;2024-03-06T08:14:29;8.95;;;5.80;;
7931;SDS011;4011;49.424;10.894;2024-03-06T08:19:52;7.32;;;4.70;;
7931;SDS011;4011;49.424;10.894;2024-03-06T08:25:14;5.55;;;3.85;;
7931;SDS011;4011;49.424;10.894;2024-03-06T08:30:35;6.35;;;3.88;;
7931;SDS011;4011;49.424;10.894;2024-03-06T08:35:59;5.97;;;3.80;;
7931;SDS011;4011;49.424;10.894;2024-03-06T08:41:20;6.43;;;4.20;;
7931;SDS011;4011;49.424;10.894;2024-03-06T08:46:42;6.10;;;3.83;;
7931;SDS011;4011;49.424;10.894;2024-03-06T08:52:05;5.63;;;3.70;;
7931;SDS011;4011;49.424;10.894;2024-03-06T08:57:27;6.07;;;3.80;;
7931;SDS011;4011;49.424;10.894;2024-03-06T09:02:53;5.50;;;3.72;;
7931;SDS011;4011;49.424;10.894;2024-03-06T09:08:16;6.63;;;4.07;;
7931;SDS011;4011;49.424;10.894;2024-03-06T09:13:39;6.72;;;4.28;;
7931;SDS011;4011;49.424;10.894;2024-03-06T09:19:00;5.65;;;3.70;;
7931;SDS011;4011;49.424;10.894;2024-03-06T09:24:23;5.75;;;3.85;;
7931;SDS011;4011;49.424;10.894;2024-03-06T09:29:45;5.03;;;3.60;;
7931;SDS011;4011;49.424;10.894;2024-03-06T09:35:07;5.93;;;3.30;;
7931;SDS011;4011;49.424;10.894;2024-03-06T09:40:30;4.93;;;3.38;;
7931;SDS011;4011;49.424;10.894;2024-03-06T09:45:51;5.68;;;3.75;;
7931;SDS011;4011;49.424;10.894;2024-03-06T09:51:13;6.10;;;3.92;;
7931;SDS011;4011;49.424;10.894;2024-03-06T09:56:36;5.45;;;3.42;;
7931;SDS011;4011;49.424;10.894;2024-03-06T10:01:57;5.25;;;3.78;;
7931;SDS011;4011;49.424;10.894;2024-03-06T10:07:22;6.88;;;4.07;;
7931;SDS011;4011;49.424;10.894;2024-03-06T10:12:46;7.00;;;4.00;;
7931;SDS011;4011;49.424;10.894;2024-03-06T10:18:15;6.53;;;4.00;;
7931;SDS011;4011;49.424;10.894;2024-03-06T10:23:38;5.57;;;3.80;;
7931;SDS011;4011;49.424;10.894;2024-03-06T10:29:04;6.07;;;4.03;;
7931;SDS011;4011;49.424;10.894;2024-03-06T10:34:26;5.95;;;3.85;;
7931;SDS011;4011;49.424;10.894;2024-03-06T10:39:48;6.68;;;4.30;;
7931;SDS011;4011;49.424;10.894;2024-03-06T10:45:15;6.30;;;4.05;;
7931;SDS011;4011;49.424;10.894;2024-03-06T10:50:38;7.00;;;4.43;;
7931;SDS011;4011;49.424;10.894;2024-03-06T10:56:01;6.47;;;4.22;;
7931;SDS011;4011;49.424;10.894;2024-03-06T11:01:24;6.85;;;4.43;;
7931;SDS011;4011;49.424;10.894;2024-03-06T11:06:46;6.18;;;4.22;;
7931;SDS011;4011;49.424;10.894;2024-03-06T11:12:08;6.45;;;4.40;;
7931;SDS011;4011;49.424;10.894;2024-03-06T11:17:31;7.40;;;4.75;;
7931;SDS011;4011;49.424;10.894;2024-03-06T11:23:07;6.28;;;4.30;;
7931;SDS011;4011;49.424;10.894;2024-03-06T11:28:35;7.25;;;4.30;;
7931;SDS011;4011;49.424;10.894;2024-03-06T11:39:20;6.47;;;4.00;;
7931;SDS011;4011;49.424;10.894;2024-03-06T11:44:52;6.45;;;4.47;;
7931;SDS011;4011;49.424;10.894;2024-03-06T11:50:14;6.22;;;4.30;;
7931;SDS011;4011;49.424;10.894;2024-03-06T11:55:37;5.82;;;4.28;;
7931;SDS011;4011;49.424;10.894;2024-03-06T12:00:59;6.03;;;4.03;;
7931;SDS011;4011;49.424;10.894;2024-03-06T12:06:21;6.78;;;4.38;;
7931;SDS011;4011;49.424;10.894;2024-03-06T12:11:44;6.68;;;4.43;;
7931;SDS011;4011;49.424;10.894;2024-03-06T12:17:05;5.82;;;4.03;;
7931;SDS011;4011;49.424;10.894;2024-03-06T12:22:28;5.90;;;4.38;;
7931;SDS011;4011;49.424;10.894;2024-03-06T12:27:51;5.20;;;3.75;;
7931;SDS011;4011;49.424;10.894;2024-03-06T12:33:16;6.13;;;4.18;;
7931;SDS011;4011;49.424;10.894;2024-03-06T12:38:37;6.22;;;4.10;;
7931;SDS011;4011;49.424;10.894;2024-03-06T12:44:00;6.65;;;4.35;;
7931;SDS011;4011;49.424;10.894;2024-03-06T12:49:24;6.20;;;4.32;;
7931;SDS011;4011;49.424;10.894;2024-03-06T12:54:46;6.13;;;4.28;;
7931;SDS011;4011;49.424;10.894;2024-03-06T13:00:09;6.47;;;4.30;;
7931;SDS011;4011;49.424;10.894;2024-03-06T13:05:35;6.47;;;4.40;;
7931;SDS011;4011;49.424;10.894;2024-03-06T13:10:57;6.57;;;4.43;;
7931;SDS011;4011;49.424;10.894;2024-03-06T13:16:20;5.80;;;4.18;;
7931;SDS011;4011;49.424;10.894;2024-03-06T13:21:42;5.80;;;4.47;;
7931;SDS011;4011;49.424;10.894;2024-03-06T13:27:03;6.65;;;4.40;;
7931;SDS011;4011;49.424;10.894;2024-03-06T13:32:26;6.00;;;4.20;;
7931;SDS011;4011;49.424;10.894;2024-03-06T13:37:48;6.95;;;4.47;;
7931;SDS011;4011;49.424;10.894;2024-03-06T13:43:10;6.57;;;4.57;;
7931;SDS011;4011;49.424;10.894;2024-03-06T13:48:33;5.78;;;3.92;;
7931;SDS011;4011;49.424;10.894;2024-03-06T13:53:56;6.05;;;4.07;;
7931;SDS011;4011;49.424;10.894;2024-03-06T13:59:17;6.80;;;4.25;;
7931;SDS011;4011;49.424;10.894;2024-03-06T14:04:40;6.15;;;4.03;;
7931;SDS011;4011;49.424;10.894;2024-03-06T14:10:02;5.97;;;4.20;;
7931;SDS011;4011;49.424;10.894;2024-03-06T14:15:23;7.50;;;4.18;;
7931;SDS011;4011;49.424;10.894;2024-03-06T14:20:47;5.90;;;4.40;;
7931;SDS011;4011;49.424;10.894;2024-03-06T14:26:09;6.88;;;4.47;;
7931;SDS011;4011;49.424;10.894;2024-03-06T14:31:30;5.78;;;4.20;;
7931;SDS011;4011;49.424;10.894;2024-03-06T14:36:53;5.90;;;4.10;;
7931;SDS011;4011;49.424;10.894;2024-03-06T14:42:15;5.60;;;3.80;;
7931;SDS011;4011;49.424;10.894;2024-03-06T14:47:36;6.00;;;4.20;;
7931;SDS011;4011;49.424;10.894;2024-03-06T14:52:59;6.68;;;4.43;;
7931;SDS011;4011;49.424;10.894;2024-03-06T14:58:20;6.75;;;4.47;;
7931;SDS011;4011;49.424;10.894;2024-03-06T15:03:42;7.28;;;4.63;;
7931;SDS011;4011;49.424;10.894;2024-03-06T15:09:05;6.63;;;4.70;;
7931;SDS011;4011;49.424;10.894;2024-03-06T15:14:26;5.97;;;4.18;;
7931;SDS011;4011;49.424;10.894;2024-03-06T15:19:48;7.15;;;4.80;;
7931;SDS011;4011;49.424;10.894;2024-03-06T15:25:11;6.80;;;4.40;;
7931;SDS011;4011;49.424;10.894;2024-03-06T15:30:33;7.97;;;4.88;;
7931;SDS011;4011;49.424;10.894;2024-03-06T15:35:57;6.38;;;4.57;;
7931;SDS011;4011;49.424;10.894;2024-03-06T15:41:21;7.25;;;4.68;;
7931;SDS011;4011;49.424;10.894;2024-03-06T15:46:43;7.80;;;4.65;;
7931;SDS011;4011;49.424;10.894;2024-03-06T15:52:04;7.43;;;4.75;;
7931;SDS011;4011;49.424;10.894;2024-03-06T15:57:27;7.05;;;4.72;;
7931;SDS011;4011;49.424;10.894;2024-03-06T16:02:49;6.82;;;4.28;;
7931;SDS011;4011;49.424;10.894;2024-03-06T16:08:10;6.50;;;4.35;;
7931;SDS011;4011;49.424;10.894;2024-03-06T16:13:33;7.05;;;4.70;;
7931;SDS011;4011;49.424;10.894;2024-03-06T16:18:54;6.38;;;4.35;;
7931;SDS011;4011;49.424;10.894;2024-03-06T16:24:16;7.65;;;4.95;;
7931;SDS011;4011;49.424;10.894;2024-03-06T16:29:38;7.20;;;4.65;;
7931;SDS011;4011;49.424;10.894;2024-03-06T16:35:00;7.28;;;4.60;;
7931;SDS011;4011;49.424;10.894;2024-03-06T16:40:24;7.38;;;4.47;;
7931;SDS011;4011;49.424;10.894;2024-03-06T16:45:47;6.55;;;4.43;;
7931;SDS011;4011;49.424;10.894;2024-03-06T16:51:08;6.90;;;4.72;;
7931;SDS011;4011;49.424;10.894;2024-03-06T16:56:30;6.55;;;4.25;;
7931;SDS011;4011;49.424;10.894;2024-03-06T17:01:53;7.53;;;4.57;;
7931;SDS011;4011;49.424;10.894;2024-03-06T17:07:16;7.50;;;4.65;;
7931;SDS011;4011;49.424;10.894;2024-03-06T17:12:37;6.80;;;4.65;;
7931;SDS011;4011;49.424;10.894;2024-03-06T17:18:00;6.25;;;4.38;;
7931;SDS011;4011;49.424;10.894;2024-03-06T17:23:22;7.45;;;4.70;;
7931;SDS011;4011;49.424;10.894;2024-03-06T17:28:44;7.15;;;4.75;;
7931;SDS011;4011;49.424;10.894;2024-03-06T17:34:08;6.43;;;4.88;;
7931;SDS011;4011;49.424;10.894;2024-03-06T17:39:29;7.03;;;4.60;;
7931;SDS011;4011;49.424;10.894;2024-03-06T17:44:50;6.60;;;4.47;;
7931;SDS011;4011;49.424;10.894;2024-03-06T17:50:13;6.10;;;4.35;;
7931;SDS011;4011;49.424;10.894;2024-03-06T17:55:35;6.80;;;4.93;;
7931;SDS011;4011;49.424;10.894;2024-03-06T18:00:56;6.22;;;4.25;;
7931;SDS011;4011;49.424;10.894;2024-03-06T18:06:20;8.15;;;4.93;;
7931;SDS011;4011;49.424;10.894;2024-03-06T18:11:42;6.45;;;4.50;;
7931;SDS011;4011;49.424;10.894;2024-03-06T18:17:03;7.03;;;4.95;;
7931;SDS011;4011;49.424;10.894;2024-03-06T18:22:26;6.88;;;4.22;;
7931;SDS011;4011;49.424;10.894;2024-03-06T18:27:47;7.13;;;4.43;;
7931;SDS011;4011;49.424;10.894;2024-03-06T18:33:09;6.75;;;4.40;;
7931;SDS011;4011;49.424;10.894;2024-03-06T18:38:35;6.95;;;4.68;;
7931;SDS011;4011;49.424;10.894;2024-03-06T18:43:57;6.57;;;4.50;;
7931;SDS011;4011;49.424;10.894;2024-03-06T18:49:19;6.38;;;4.35;;
7931;SDS011;4011;49.424;10.894;2024-03-06T18:54:43;7.18;;;4.80;;
7931;SDS011;4011;49.424;10.894;2024-03-06T19:00:05;7.13;;;4.75;;
7931;SDS011;4011;49.424;10.894;2024-03-06T19:05:27;6.68;;;4.50;;
7931;SDS011;4011;49.424;10.894;2024-03-06T19:10:49;6.43;;;4.00;;
7931;SDS011;4011;49.424;10.894;2024-03-06T19:16:12;7.15;;;4.80;;
7931;SDS011;4011;49.424;10.894;2024-03-06T19:21:34;6.30;;;4.32;;
7931;SDS011;4011;49.424;10.894;2024-03-06T19:26:58;6.25;;;4.57;;
7931;SDS011;4011;49.424;10.894;2024-03-06T19:32:19;6.63;;;4.53;;
7931;SDS011;4011;49.424;10.894;2024-03-06T19:37:41;7.18;;;4.90;;
7931;SDS011;4011;49.424;10.894;2024-03-06T19:43:05;6.65;;;4.72;;
7931;SDS011;4011;49.424;10.894;2024-03-06T19:48:27;7.80;;;4.90;;
7931;SDS011;4011;49.424;10.894;2024-03-06T19:53:49;7.25;;;4.80;;
7931;SDS011;4011;49.424;10.894;2024-03-06T19:59:14;7.05;;;4.93;;
7931;SDS011;4011;49.424;10.894;2024-03-06T20:04:35;7.20;;;4.90;;
7931;SDS011;4011;49.424;10.894;2024-03-06T20:09:57;7.32;;;5.43;;
7931;SDS011;4011;49.424;10.894;2024-03-06T20:15:21;5.80;;;4.32;;
7931;SDS011;4011;49.424;10.894;2024-03-06T20:20:42;8.00;;;5.00;;
7931;SDS011;4011;49.424;10.894;2024-03-06T20:26:03;8.05;;;5.40;;
7931;SDS011;4011;49.424;10.894;2024-03-06T20:31:26;7.28;;;4.68;;
7931;SDS011;4011;49.424;10.894;2024-03-06T20:36:47;7.30;;;5.25;;
7931;SDS011;4011;49.424;10.894;2024-03-06T20:42:10;7.13;;;5.38;;
7931;SDS011;4011;49.424;10.894;2024-03-06T20:47:33;7.45;;;5.20;;
7931;SDS011;4011;49.424;10.894;2024-03-06T20:52:54;8.13;;;5.57;;
7931;SDS011;4011;49.424;10.894;2024-03-06T20:58:16;8.55;;;5.72;;
7931;SDS011;4011;49.424;10.894;2024-03-06T21:03:39;7.65;;;5.68;;
7931;SDS011;4011;49.424;10.894;2024-03-06T21:09:00;8.90;;;6.10;;
7931;SDS011;4011;49.424;10.894;2024-03-06T21:14:21;8.50;;;6.00;;
7931;SDS011;4011;49.424;10.894;2024-03-06T21:19:44;8.18;;;5.93;;
7931;SDS011;4011;49.424;10.894;2024-03-06T21:25:06;9.85;;;7.05;;
7931;SDS011;4011;49.424;10.894;2024-03-06T21:30:28;10.95;;;7.72;;
7931;SDS011;4011;49.424;10.894;2024-03-06T21:35:51;10.63;;;6.82;;
7931;SDS011;4011;49.424;10.894;2024-03-06T21:41:12;9.73;;;7.45;;
7931;SDS011;4011;49.424;10.894;2024-03-06T21:46:34;10.50;;;7.50;;
7931;SDS011;4011;49.424;10.894;2024-03-06T21:51:56;10.57;;;7.70;;
7931;SDS011;4011;49.424;10.894;2024-03-06T21:57:19;10.52;;;7.55;;
7931;SDS011;4011;49.424;10.894;2024-03-06T22:02:41;9.40;;;7.57;;
7931;SDS011;4011;49.424;10.894;2024-03-06T22:08:05;10.25;;;7.43;;
7931;SDS011;4011;49.424;10.894;2024-03-06T22:13:28;9.60;;;7.57;;
7931;SDS011;4011;49.424;10.894;2024-03-06T22:18:49;10.75;;;7.70;;
7931;SDS011;4011;49.424;10.894;2024-03-06T22:24:14;10.13;;;7.63;;
7931;SDS011;4011;49.424;10.894;2024-03-06T22:29:36;11.07;;;8.50;;
7931;SDS011;4011;49.424;10.894;2024-03-06T22:34:58;11.43;;;8.07;;
7931;SDS011;4011;49.424;10.894;2024-03-06T22:40:20;11.32;;;8.07;;
7931;SDS011;4011;49.424;10.894;2024-03-06T22:45:42;9.95;;;8.32;;
7931;SDS011;4011;49.424;10.894;2024-03-06T22:51:03;9.63;;;8.35;;
7931;SDS011;4011;49.424;10.894;2024-03-06T22:56:26;9.95;;;7.72;;
7931;SDS011;4011;49.424;10.894;2024-03-06T23:01:50;10.00;;;7.90;;
7931;SDS011;4011;49.424;10.894;2024-03-06T23:07:11;9.75;;;8.63;;
7931;SDS011;4011;49.424;10.894;2024-03-06T23:12:34;9.77;;;8.45;;
7931;SDS011;4011;49.424;10.894;2024-03-06T23:17:55;10.98;;;8.00;;
7931;SDS011;4011;49.424;10.894;2024-03-06T23:23:16;9.15;;;7.95;;
7931;SDS011;4011;49.424;10.894;2024-03-06T23:28:39;10.18;;;8.13;;
7931;SDS011;4011;49.424;10.894;2024-03-06T23:34:01;10.63;;;8.18;;
7931;SDS011;4011;49.424;10.894;2024-03-06T23:39:23;9.38;;;8.13;;
7931;SDS011;4011;49.424;10.894;2024-03-06T23:44:45;9.80;;;7.80;;
7931;SDS011;4011;49.424;10.894;2024-03-06T23:50:07;10.07;;;7.88;;
7931;SDS011;4011;49.424;10.894;2024-03-06T23:55:29;8.85;;;7.93;;
